Time;durP1;ratioP1;P1;durP2;ratioP2;P2;SDS_P1;SDS_P2;PMS_P1;PMS_P2;Temp;Humidity;BMP_temperature;BMP_pressure;BME280_temperature;BME280_humidity;BME280_pressure;Samples;Min_cycle;Max_cycle;Signal;HPM_P1;HPM_P2
2023/04/30 00:00:22;;;;;;;4.03;3.13;;;28.70;99.90;;;;;;5050778;28;20043;-48
2023/04/30 00:02:47;;;;;;;5.28;3.17;;;28.70;99.90;;;;;;5050856;28;20036;-49
2023/04/30 00:05:13;;;;;;;3.42;3.03;;;28.70;99.90;;;;;;5037957;28;20029;-49
2023/04/30 00:07:41;;;;;;;5.53;3.45;;;28.70;99.90;;;;;;5051746;28;20035;-49
2023/04/30 00:10:10;;;;;;;4.50;3.58;;;28.70;99.90;;;;;;5052376;28;20024;-49
2023/04/30 00:12:37;;;;;;;4.53;3.33;;;28.70;99.90;;;;;;5052080;28;20025;-49
2023/04/30 00:15:03;;;;;;;3.72;2.80;;;28.70;99.90;;;;;;5050467;28;20017;-49
2023/04/30 00:17:29;;;;;;;5.15;2.70;;;28.70;99.90;;;;;;5046403;28;20013;-49
2023/04/30 00:19:55;;;;;;;4.18;2.80;;;28.60;99.90;;;;;;5043701;28;20067;-49
2023/04/30 00:22:20;;;;;;;4.63;3.20;;;28.70;99.90;;;;;;5048757;28;20150;-49
2023/04/30 00:24:47;;;;;;;4.57;3.35;;;28.70;99.90;;;;;;5041542;28;20119;-49
2023/04/30 00:27:12;;;;;;;5.45;3.50;;;28.70;99.90;;;;;;5051271;28;20460;-48
2023/04/30 00:29:38;;;;;;;3.63;3.00;;;28.60;99.90;;;;;;5051869;28;20188;-49
2023/04/30 00:32:05;;;;;;;4.43;3.10;;;28.60;99.90;;;;;;5052199;28;20470;-48
2023/04/30 00:34:31;;;;;;;3.97;2.80;;;28.70;99.90;;;;;;5051543;28;20036;-49
2023/04/30 00:36:57;;;;;;;4.95;3.20;;;28.60;99.90;;;;;;5051550;28;20434;-49
2023/04/30 00:39:22;;;;;;;5.35;3.00;;;28.60;99.90;;;;;;5040538;28;20049;-49
2023/04/30 00:41:48;;;;;;;4.45;3.20;;;28.60;99.90;;;;;;5049350;28;20057;-49
2023/04/30 00:44:14;;;;;;;3.97;2.95;;;28.60;99.90;;;;;;5052382;28;20103;-49
2023/04/30 00:46:40;;;;;;;3.72;3.00;;;28.60;99.90;;;;;;5037861;28;20029;-48
2023/04/30 00:49:06;;;;;;;3.30;3.00;;;28.60;99.90;;;;;;5055670;28;20083;-48
2023/04/30 00:51:32;;;;;;;4.35;3.22;;;28.60;99.90;;;;;;5052756;28;20144;-49
2023/04/30 00:54:02;;;;;;;4.45;3.67;;;28.60;99.90;;;;;;5035613;28;20051;-48
2023/04/30 00:56:29;;;;;;;4.55;3.20;;;28.60;99.90;;;;;;5052162;28;20021;-48
2023/04/30 00:58:56;;;;;;;5.25;3.08;;;28.60;99.90;;;;;;5046581;28;20032;-49
2023/04/30 01:01:30;;;;;;;4.15;3.38;;;28.60;99.90;;;;;;5068076;22;20049;-47
2023/04/30 01:03:56;;;;;;;4.18;3.38;;;28.60;99.90;;;;;;5055208;28;20086;-46
2023/04/30 01:06:22;;;;;;;4.45;3.28;;;28.60;99.90;;;;;;5041513;28;20018;-47
2023/04/30 01:08:48;;;;;;;4.00;3.30;;;28.60;99.90;;;;;;5055288;28;20060;-47
2023/04/30 01:11:25;;;;;;;4.93;3.58;;;28.60;99.90;;;;;;5053629;28;20021;-47
2023/04/30 01:14:24;;;;;;;3.72;3.30;;;28.60;99.90;;;;;;5055072;28;20126;-47
2023/04/30 01:17:12;;;;;;;4.28;3.28;;;28.60;99.90;;;;;;5055072;28;20099;-46
2023/04/30 01:19:41;;;;;;;5.05;3.47;;;28.60;99.90;;;;;;5054946;28;20078;-46
2023/04/30 01:22:27;;;;;;;3.85;3.22;;;28.60;99.90;;;;;;5055608;28;20017;-46
2023/04/30 01:25:11;;;;;;;3.47;3.00;;;28.50;99.90;;;;;;5054888;28;20028;-47
2023/04/30 01:28:04;;;;;;;4.88;3.38;;;28.60;99.90;;;;;;5054897;28;20158;-47
2023/04/30 01:30:34;;;;;;;4.30;2.97;;;28.50;99.90;;;;;;5055079;28;20021;-47
2023/04/30 01:33:00;;;;;;;3.20;2.90;;;28.60;99.90;;;;;;5054828;28;20025;-47
2023/04/30 01:35:53;;;;;;;3.70;3.10;;;28.50;99.90;;;;;;5054517;28;20024;-47
2023/04/30 01:38:48;;;;;;;3.58;3.17;;;28.50;99.90;;;;;;5054382;28;20119;-47
2023/04/30 01:41:49;;;;;;;3.63;2.83;;;28.50;99.90;;;;;;5054620;28;20053;-47
2023/04/30 01:44:20;;;;;;;4.40;3.05;;;28.50;99.90;;;;;;5054060;28;20051;-47
2023/04/30 01:47:13;;;;;;;4.38;3.08;;;28.50;99.90;;;;;;5054544;28;20013;-48
2023/04/30 01:49:50;;;;;;;3.33;2.67;;;28.50;99.90;;;;;;5033373;28;20049;-46
2023/04/30 01:52:29;;;;;;;4.45;3.17;;;28.50;99.90;;;;;;5054447;28;20036;-46
2023/04/30 01:55:06;;;;;;;3.58;3.08;;;28.50;99.90;;;;;;5054020;28;20021;-47
2023/04/30 01:57:39;;;;;;;4.70;3.25;;;28.50;99.90;;;;;;5053541;28;20028;-47
2023/04/30 02:00:09;;;;;;;3.85;2.90;;;28.50;99.90;;;;;;5062507;22;20046;-60
2023/04/30 02:02:35;;;;;;;4.07;3.28;;;28.50;99.90;;;;;;5034275;28;20037;-59
2023/04/30 02:05:01;;;;;;;5.07;3.22;;;28.40;99.90;;;;;;5033851;28;20101;-60
2023/04/30 02:07:44;;;;;;;3.65;2.80;;;28.50;99.90;;;;;;5034383;28;20087;-58
2023/04/30 02:10:13;;;;;;;4.50;3.10;;;28.50;99.90;;;;;;5034501;28;20026;-58
2023/04/30 02:12:40;;;;;;;5.13;3.75;;;28.50;99.90;;;;;;5033104;28;20048;-58
2023/04/30 02:15:06;;;;;;;5.55;3.08;;;28.40;99.90;;;;;;5033924;28;20018;-58
2023/04/30 02:17:33;;;;;;;7.55;4.72;;;28.40;99.90;;;;;;5034236;28;20017;-58
2023/04/30 02:19:59;;;;;;;4.63;3.80;;;28.40;99.90;;;;;;5032585;28;20063;-59
2023/04/30 02:22:25;;;;;;;6.38;4.40;;;28.40;99.90;;;;;;5033921;28;20022;-59
2023/04/30 02:24:54;;;;;;;6.32;4.10;;;28.40;99.90;;;;;;5033933;28;20472;-59
2023/04/30 02:27:21;;;;;;;4.95;3.50;;;28.40;99.90;;;;;;5033868;28;20033;-59
2023/04/30 02:29:47;;;;;;;6.57;4.13;;;28.40;99.90;;;;;;5033466;28;20117;-59
2023/04/30 02:32:13;;;;;;;6.13;4.40;;;28.40;99.90;;;;;;5034152;28;20028;-58
2023/04/30 02:34:40;;;;;;;4.47;3.97;;;28.40;99.90;;;;;;5033111;28;20112;-59
2023/04/30 02:37:06;;;;;;;5.65;3.88;;;28.30;99.90;;;;;;5033725;28;20076;-58
2023/04/30 02:39:32;;;;;;;5.45;3.75;;;28.30;99.90;;;;;;5033775;28;20097;-59
2023/04/30 02:41:58;;;;;;;5.30;3.63;;;28.40;99.90;;;;;;5033441;28;20032;-59
2023/04/30 02:44:24;;;;;;;4.72;3.30;;;28.30;99.90;;;;;;5033463;28;20021;-59
2023/04/30 02:46:49;;;;;;;6.68;3.80;;;28.40;99.90;;;;;;5033568;28;20125;-59
2023/04/30 02:49:15;;;;;;;4.00;3.60;;;28.40;99.90;;;;;;5033557;28;20112;-58
2023/04/30 02:51:41;;;;;;;4.50;3.80;;;28.40;99.90;;;;;;5032167;28;20374;-58
2023/04/30 02:54:07;;;;;;;5.13;3.83;;;28.30;99.90;;;;;;5033610;28;20033;-59
2023/04/30 02:56:33;;;;;;;4.63;3.40;;;28.30;99.90;;;;;;5033105;28;20025;-60
2023/04/30 02:58:59;;;;;;;5.55;4.13;;;28.30;99.90;;;;;;5033225;28;20078;-59
2023/04/30 03:01:26;;;;;;;4.72;3.92;;;28.30;99.90;;;;;;5049308;22;20057;-46
2023/04/30 03:03:52;;;;;;;4.50;3.20;;;28.30;99.90;;;;;;5033140;28;20035;-46
2023/04/30 03:06:18;;;;;;;4.47;3.45;;;28.30;99.90;;;;;;5032975;28;20099;-46
2023/04/30 03:08:43;;;;;;;4.60;3.47;;;28.30;99.90;;;;;;5032816;28;20061;-46
2023/04/30 03:11:09;;;;;;;4.53;3.47;;;28.30;99.90;;;;;;5032800;28;20504;-46
2023/04/30 03:13:35;;;;;;;4.57;3.70;;;28.30;99.90;;;;;;5032888;28;20382;-46
2023/04/30 03:16:05;;;;;;;4.47;3.30;;;28.30;99.90;;;;;;5032870;28;20104;-46
2023/04/30 03:18:31;;;;;;;4.32;3.33;;;28.30;99.90;;;;;;5033088;28;20029;-46
2023/04/30 03:20:57;;;;;;;5.07;3.65;;;28.30;99.90;;;;;;5032714;28;20075;-46
2023/04/30 03:23:23;;;;;;;4.07;3.20;;;28.30;99.90;;;;;;5032795;28;20017;-46
2023/04/30 03:25:49;;;;;;;5.03;3.83;;;28.30;99.90;;;;;;5032755;28;20108;-46
2023/04/30 03:28:15;;;;;;;3.50;2.70;;;28.30;99.90;;;;;;5032448;28;20029;-46
2023/04/30 03:30:41;;;;;;;4.05;3.15;;;28.30;99.90;;;;;;5032981;28;20087;-47
2023/04/30 03:33:07;;;;;;;4.30;3.05;;;28.30;99.90;;;;;;5031194;28;20030;-46
2023/04/30 03:35:33;;;;;;;4.30;2.92;;;28.30;99.90;;;;;;5032569;28;20030;-46
2023/04/30 03:38:02;;;;;;;3.93;3.13;;;28.30;99.90;;;;;;5032413;28;20017;-46
2023/04/30 03:40:28;;;;;;;4.28;3.70;;;28.30;99.90;;;;;;5032591;28;20036;-46
2023/04/30 03:42:54;;;;;;;3.65;3.05;;;28.20;99.90;;;;;;5031796;28;20025;-45
2023/04/30 03:45:20;;;;;;;4.47;3.10;;;28.20;99.90;;;;;;5031303;28;20029;-47
2023/04/30 03:47:46;;;;;;;4.00;3.13;;;28.20;99.90;;;;;;5032383;28;20065;-47
2023/04/30 03:50:12;;;;;;;4.75;2.88;;;28.20;99.90;;;;;;5032323;28;20479;-47
2023/04/30 03:52:38;;;;;;;5.50;2.80;;;28.20;99.90;;;;;;5032378;28;20100;-47
2023/04/30 03:55:04;;;;;;;3.42;2.92;;;28.20;99.90;;;;;;5032198;28;20103;-47
2023/04/30 03:57:31;;;;;;;3.30;2.63;;;28.20;99.90;;;;;;5032259;28;20026;-47
2023/04/30 03:59:57;;;;;;;4.93;2.60;;;28.20;99.90;;;;;;5032273;28;20064;-46
2023/04/30 04:02:23;;;;;;;3.50;2.50;;;28.20;99.90;;;;;;5032650;28;20366;-46
2023/04/30 04:04:50;;;;;;;2.63;2.35;;;28.20;99.90;;;;;;5031922;28;20025;-46
2023/04/30 04:07:16;;;;;;;5.45;2.60;;;28.20;99.90;;;;;;5032094;28;20032;-46
2023/04/30 04:09:41;;;;;;;4.07;2.85;;;28.20;99.90;;;;;;5031995;28;20037;-47
2023/04/30 04:12:07;;;;;;;3.33;2.63;;;28.20;99.90;;;;;;5031652;28;20147;-47
2023/04/30 04:14:33;;;;;;;3.38;2.42;;;28.20;99.90;;;;;;5032041;28;20029;-46
2023/04/30 04:17:00;;;;;;;4.45;2.78;;;28.20;99.90;;;;;;5032043;28;20463;-46
2023/04/30 04:19:27;;;;;;;3.08;2.35;;;28.20;99.90;;;;;;5031393;28;20029;-47
2023/04/30 04:21:53;;;;;;;3.33;2.50;;;28.20;99.90;;;;;;5031671;28;20037;-46
2023/04/30 04:24:18;;;;;;;2.53;2.00;;;28.20;99.90;;;;;;5031891;28;20601;-46
2023/04/30 04:26:44;;;;;;;2.47;2.28;;;28.20;99.90;;;;;;5027623;28;20033;-46
2023/04/30 04:29:11;;;;;;;3.60;2.65;;;28.10;99.90;;;;;;5023100;28;20363;-46
2023/04/30 04:31:37;;;;;;;2.42;2.20;;;28.10;99.90;;;;;;5031640;28;20120;-46
2023/04/30 04:34:04;;;;;;;2.00;1.80;;;28.10;99.90;;;;;;5032060;28;20030;-46
2023/04/30 04:36:32;;;;;;;3.15;2.28;;;28.10;99.90;;;;;;5031742;28;20022;-47
2023/04/30 04:39:00;;;;;;;3.53;2.45;;;28.10;99.90;;;;;;5030498;28;20026;-45
2023/04/30 04:41:27;;;;;;;2.67;2.17;;;28.10;99.90;;;;;;5031717;28;20053;-46
2023/04/30 04:43:53;;;;;;;3.03;2.05;;;28.10;99.90;;;;;;5031650;28;20033;-46
2023/04/30 04:46:19;;;;;;;2.67;1.88;;;28.10;99.90;;;;;;5030262;28;20033;-47
2023/04/30 04:48:45;;;;;;;2.60;1.80;;;28.10;99.90;;;;;;5031585;28;20041;-46
2023/04/30 04:51:11;;;;;;;3.20;2.25;;;28.10;99.90;;;;;;5031601;28;20025;-46
2023/04/30 04:53:37;;;;;;;2.10;1.60;;;28.10;99.90;;;;;;5031635;28;20385;-46
2023/04/30 04:56:03;;;;;;;2.08;1.80;;;28.10;99.90;;;;;;5031553;28;20026;-46
2023/04/30 04:58:29;;;;;;;3.22;1.92;;;28.10;99.90;;;;;;5031306;28;20021;-46
2023/04/30 05:00:56;;;;;;;2.15;1.80;;;28.10;99.90;;;;;;5031335;28;20065;-47
2023/04/30 05:03:22;;;;;;;2.43;2.23;;;28.10;99.90;;;;;;5031482;28;20029;-46
2023/04/30 05:05:47;;;;;;;2.17;1.95;;;28.00;99.90;;;;;;5031259;28;20030;-46
2023/04/30 05:08:13;;;;;;;2.75;2.00;;;28.00;99.90;;;;;;5031466;28;20092;-46
2023/04/30 05:10:39;;;;;;;2.63;1.98;;;28.00;99.90;;;;;;5031411;28;20105;-46
2023/04/30 05:13:05;;;;;;;2.13;1.65;;;28.00;99.90;;;;;;5031153;28;20029;-46
2023/04/30 05:15:30;;;;;;;2.15;1.92;;;28.00;99.90;;;;;;5031406;28;20025;-46
2023/04/30 05:17:56;;;;;;;2.00;1.67;;;28.00;99.90;;;;;;5031308;28;20502;-47
2023/04/30 05:20:22;;;;;;;1.85;1.50;;;28.00;99.90;;;;;;5029561;28;20404;-46
2023/04/30 05:22:48;;;;;;;2.35;1.60;;;28.00;99.90;;;;;;5031294;28;20022;-47
2023/04/30 05:25:14;;;;;;;1.50;1.40;;;28.00;99.90;;;;;;5031457;28;20017;-46
2023/04/30 05:27:39;;;;;;;1.83;1.60;;;28.00;99.90;;;;;;5030831;28;20041;-46
2023/04/30 05:30:06;;;;;;;2.00;1.40;;;28.00;99.90;;;;;;5031963;28;20025;-46
2023/04/30 05:32:32;;;;;;;1.75;1.10;;;28.00;99.90;;;;;;5034277;28;20022;-47
2023/04/30 05:34:57;;;;;;;2.63;0.90;;;28.00;99.90;;;;;;5034796;28;20033;-48
2023/04/30 05:37:23;;;;;;;3.08;0.90;;;27.90;99.90;;;;;;5033679;28;20021;-47
2023/04/30 05:39:49;;;;;;;2.95;1.00;;;27.90;99.90;;;;;;5017179;28;20025;-46
2023/04/30 05:42:15;;;;;;;2.00;0.82;;;27.80;99.90;;;;;;5034674;28;20382;-48
2023/04/30 05:44:41;;;;;;;4.97;1.38;;;27.70;99.90;;;;;;5020720;28;20040;-47
2023/04/30 05:47:06;;;;;;;4.95;4.32;;;27.60;99.90;;;;;;5034856;28;20025;-47
2023/04/30 05:49:32;;;;;;;4.20;3.35;;;27.60;99.90;;;;;;5034374;28;20494;-47
2023/04/30 05:51:58;;;;;;;2.72;2.08;;;27.50;99.90;;;;;;5034693;28;20048;-47
2023/04/30 05:54:24;;;;;;;5.45;2.80;;;27.50;99.90;;;;;;5033149;28;20509;-47
2023/04/30 05:56:49;;;;;;;2.42;1.50;;;27.40;99.90;;;;;;5033335;28;20030;-47
2023/04/30 05:59:15;;;;;;;3.00;1.52;;;27.40;99.90;;;;;;5034220;28;20025;-47
2023/04/30 06:01:41;;;;;;;3.20;1.45;;;27.30;99.90;;;;;;5031163;28;20486;-46
2023/04/30 06:04:08;;;;;;;2.92;1.92;;;27.30;99.90;;;;;;5034378;28;20110;-46
2023/04/30 06:06:35;;;;;;;4.90;1.63;;;27.20;99.90;;;;;;5031718;28;20132;-46
2023/04/30 06:09:01;;;;;;;3.55;2.00;;;27.20;99.90;;;;;;5033896;28;20120;-47
2023/04/30 06:11:28;;;;;;;3.55;1.45;;;27.20;99.90;;;;;;5034335;28;20025;-46
2023/04/30 06:13:54;;;;;;;4.97;2.03;;;27.20;99.90;;;;;;5034206;28;20055;-46
2023/04/30 06:16:19;;;;;;;3.08;1.63;;;27.30;99.90;;;;;;5033584;28;20096;-46
2023/04/30 06:18:45;;;;;;;4.78;1.70;;;27.30;99.90;;;;;;5034255;28;20032;-49
2023/04/30 06:21:11;;;;;;;7.60;1.92;;;27.40;99.90;;;;;;5032356;28;20018;-47
2023/04/30 06:23:37;;;;;;;6.15;1.55;;;27.40;99.90;;;;;;5033895;28;20033;-47
2023/04/30 06:26:03;;;;;;;4.03;1.63;;;27.40;99.90;;;;;;5033684;28;20541;-47
2023/04/30 06:28:28;;;;;;;4.00;1.60;;;27.40;99.90;;;;;;5032526;28;20025;-47
2023/04/30 06:30:54;;;;;;;2.42;1.50;;;27.50;99.90;;;;;;5033967;28;20075;-47
2023/04/30 06:33:21;;;;;;;4.95;1.88;;;27.50;99.90;;;;;;5033664;28;20090;-47
2023/04/30 06:35:46;;;;;;;3.42;1.48;;;27.50;99.90;;;;;;5033804;28;20534;-46
2023/04/30 06:38:17;;;;;;;6.25;2.22;;;27.50;99.90;;;;;;5033642;28;20113;-46
2023/04/30 06:40:43;;;;;;;2.13;1.58;;;27.50;99.90;;;;;;5033973;28;20104;-47
2023/04/30 06:43:08;;;;;;;4.15;1.85;;;27.50;99.90;;;;;;5032842;28;20030;-47
2023/04/30 06:45:34;;;;;;;3.25;1.92;;;27.50;99.90;;;;;;5033553;28;20018;-46
2023/04/30 06:48:00;;;;;;;2.70;1.50;;;27.60;99.90;;;;;;5033628;28;20032;-46
2023/04/30 06:50:26;;;;;;;3.05;2.05;;;27.60;99.90;;;;;;5033161;28;20359;-47
2023/04/30 06:52:52;;;;;;;4.13;1.48;;;27.60;99.90;;;;;;5033207;28;20029;-47
2023/04/30 06:55:18;;;;;;;3.38;2.35;;;27.60;99.90;;;;;;5033332;28;20048;-47
2023/04/30 06:57:43;;;;;;;3.38;2.30;;;27.60;99.90;;;;;;5031994;28;20025;-47
2023/04/30 07:00:10;;;;;;;2.58;1.92;;;27.60;99.90;;;;;;5032941;28;20072;-47
2023/04/30 07:02:36;;;;;;;2.58;1.63;;;27.60;99.90;;;;;;5033188;28;20080;-47
2023/04/30 07:05:01;;;;;;;2.80;1.60;;;27.60;99.90;;;;;;5033138;28;20429;-47
2023/04/30 07:07:27;;;;;;;2.38;1.77;;;27.70;99.90;;;;;;5032834;28;20037;-47
2023/04/30 07:09:53;;;;;;;4.72;1.80;;;27.60;99.90;;;;;;5033245;28;20060;-45
2023/04/30 07:12:20;;;;;;;2.40;1.88;;;27.70;99.90;;;;;;5031830;28;20013;-45
2023/04/30 07:14:46;;;;;;;3.47;2.47;;;27.70;99.90;;;;;;5032836;28;20022;-46
2023/04/30 07:17:11;;;;;;;5.07;1.85;;;27.70;99.90;;;;;;5033068;28;20105;-46
2023/04/30 07:19:37;;;;;;;2.17;1.60;;;27.80;99.90;;;;;;5032481;28;20021;-46
2023/04/30 07:22:03;;;;;;;3.60;1.80;;;27.70;99.90;;;;;;5032436;28;20075;-46
2023/04/30 07:24:29;;;;;;;2.20;1.55;;;27.70;99.90;;;;;;5032823;28;20045;-46
2023/04/30 07:26:54;;;;;;;2.70;1.50;;;27.70;99.90;;;;;;5032063;28;20036;-47
2023/04/30 07:29:21;;;;;;;2.08;1.55;;;27.70;99.90;;;;;;5032946;28;20037;-47
2023/04/30 07:31:46;;;;;;;2.15;1.70;;;27.70;99.90;;;;;;5032593;28;20017;-47
2023/04/30 07:34:12;;;;;;;2.25;1.50;;;27.80;99.90;;;;;;5032458;28;20051;-47
2023/04/30 07:36:38;;;;;;;1.88;1.50;;;27.80;99.90;;;;;;5032286;28;20108;-46
2023/04/30 07:39:07;;;;;;;2.92;1.60;;;27.80;99.90;;;;;;5032439;28;20029;-46
2023/04/30 07:41:33;;;;;;;3.22;2.13;;;27.80;99.90;;;;;;5032207;28;20489;-46
2023/04/30 07:43:58;;;;;;;3.85;1.92;;;27.80;99.90;;;;;;5032392;28;20033;-47
2023/04/30 07:46:24;;;;;;;2.10;1.70;;;27.80;99.90;;;;;;5032587;28;20017;-47
2023/04/30 07:48:50;;;;;;;4.40;2.58;;;27.80;99.90;;;;;;5031001;28;20033;-47
2023/04/30 07:51:16;;;;;;;4.43;3.25;;;27.80;99.90;;;;;;5032205;28;20128;-46
2023/04/30 07:53:42;;;;;;;4.20;3.38;;;27.80;99.90;;;;;;5031074;28;20446;-47
2023/04/30 07:56:08;;;;;;;5.93;3.53;;;27.90;99.90;;;;;;5032332;28;20029;-47
2023/04/30 07:58:34;;;;;;;5.78;3.55;;;27.80;99.90;;;;;;5031633;28;20025;-47
2023/04/30 08:01:00;;;;;;;6.05;4.45;;;27.90;99.90;;;;;;5032198;28;20091;-47
2023/04/30 08:03:26;;;;;;;6.35;4.55;;;27.90;99.90;;;;;;5032009;28;20030;-47
2023/04/30 08:05:52;;;;;;;6.10;4.03;;;27.90;99.90;;;;;;5032046;28;20424;-47
2023/04/30 08:08:17;;;;;;;4.20;3.50;;;27.90;99.90;;;;;;5031848;28;20057;-47
2023/04/30 08:10:43;;;;;;;4.72;3.97;;;27.90;99.90;;;;;;5032179;28;20032;-47
2023/04/30 08:13:09;;;;;;;4.53;3.38;;;27.90;99.90;;;;;;5031591;28;20033;-47
2023/04/30 08:15:36;;;;;;;4.95;3.80;;;27.90;99.90;;;;;;5032220;28;20455;-47
2023/04/30 08:18:02;;;;;;;7.50;4.20;;;27.90;99.90;;;;;;5032080;28;20020;-47
2023/04/30 08:20:28;;;;;;;6.40;3.90;;;27.90;99.90;;;;;;5031699;28;20049;-47
2023/04/30 08:22:54;;;;;;;5.65;3.90;;;27.90;99.90;;;;;;5031744;28;20056;-50
2023/04/30 08:25:20;;;;;;;6.07;3.50;;;27.90;99.90;;;;;;5031916;28;20379;-47
2023/04/30 08:27:46;;;;;;;4.07;2.97;;;27.90;99.90;;;;;;5031532;28;20025;-46
2023/04/30 08:30:11;;;;;;;3.90;3.08;;;27.90;99.90;;;;;;5031861;28;20021;-46
2023/04/30 08:32:37;;;;;;;4.57;3.35;;;27.90;99.90;;;;;;5031853;28;20044;-47
2023/04/30 08:35:07;;;;;;;4.70;3.25;;;27.90;99.90;;;;;;5030035;28;20022;-47
2023/04/30 08:37:33;;;;;;;4.88;2.83;;;27.90;99.90;;;;;;5030621;28;20356;-47
2023/04/30 08:39:59;;;;;;;3.92;2.60;;;27.90;99.90;;;;;;5031602;28;20032;-47
2023/04/30 08:42:34;;;;;;;3.05;2.65;;;27.90;99.90;;;;;;5030161;28;20022;-47
2023/04/30 08:45:00;;;;;;;3.17;2.78;;;27.90;99.90;;;;;;5031691;28;20087;-47
2023/04/30 08:47:27;;;;;;;3.38;2.70;;;27.90;99.90;;;;;;5031535;28;20021;-47
2023/04/30 08:49:53;;;;;;;3.23;2.80;;;27.90;99.90;;;;;;5030476;28;20120;-47
2023/04/30 08:52:20;;;;;;;6.03;2.72;;;27.90;99.90;;;;;;5031649;28;20044;-47
2023/04/30 08:54:47;;;;;;;5.00;2.63;;;27.90;99.90;;;;;;5031113;28;20117;-47
2023/04/30 08:57:13;;;;;;;3.80;2.10;;;27.90;99.90;;;;;;5031605;28;20024;-48
2023/04/30 08:59:39;;;;;;;3.17;2.50;;;27.90;99.90;;;;;;5031431;28;20022;-47
2023/04/30 09:02:05;;;;;;;4.10;2.92;;;27.90;99.90;;;;;;5031139;28;20025;-47
2023/04/30 09:04:31;;;;;;;7.50;2.97;;;27.90;99.90;;;;;;5031644;28;20529;-47
2023/04/30 09:06:59;;;;;;;3.58;2.20;;;27.90;99.90;;;;;;5035148;28;20054;-47
2023/04/30 09:09:32;;;;;;;4.18;2.65;;;27.90;99.90;;;;;;5035403;28;20116;-46
2023/04/30 09:12:17;;;;;;;3.03;2.20;;;28.00;99.90;;;;;;5033742;28;20025;-46
2023/04/30 09:15:04;;;;;;;3.30;2.20;;;28.00;99.90;;;;;;5034804;28;20497;-47
2023/04/30 09:17:30;;;;;;;5.15;2.80;;;28.00;99.90;;;;;;5035176;28;20021;-46
2023/04/30 09:20:10;;;;;;;3.42;2.50;;;28.00;99.90;;;;;;5034909;28;20029;-46
2023/04/30 09:22:37;;;;;;;2.35;2.00;;;28.00;99.90;;;;;;5035234;28;20083;-46
2023/04/30 09:25:04;;;;;;;4.28;2.58;;;28.00;99.90;;;;;;5034986;28;20018;-46
2023/04/30 09:27:30;;;;;;;2.47;2.22;;;28.00;99.90;;;;;;5034889;28;20487;-46
2023/04/30 09:29:55;;;;;;;3.97;2.60;;;28.00;99.90;;;;;;5035243;28;20040;-46
2023/04/30 09:32:21;;;;;;;3.15;2.00;;;28.00;99.90;;;;;;5033659;28;20030;-46
2023/04/30 09:34:47;;;;;;;3.65;2.13;;;27.90;99.90;;;;;;5033386;28;20471;-47
2023/04/30 09:37:13;;;;;;;3.97;2.40;;;28.00;99.90;;;;;;5034717;28;20049;-46
2023/04/30 09:39:53;;;;;;;3.20;2.42;;;28.00;99.90;;;;;;5034516;28;20021;-47
2023/04/30 09:42:20;;;;;;;3.38;2.58;;;28.00;99.90;;;;;;5034660;28;20029;-46
2023/04/30 09:44:46;;;;;;;4.40;2.13;;;28.00;99.90;;;;;;5034401;28;20084;-46
2023/04/30 09:47:20;;;;;;;3.45;2.22;;;28.00;99.90;;;;;;5034767;28;20395;-47
2023/04/30 09:49:53;;;;;;;3.33;2.35;;;28.00;99.90;;;;;;5034294;28;20034;-46
2023/04/30 09:52:20;;;;;;;5.13;2.53;;;28.00;99.90;;;;;;5034367;28;20467;-46
2023/04/30 09:54:46;;;;;;;;;;;28.00;99.90;;;;;;5034647;28;20484;-46
2023/04/30 09:57:15;;;;;;;3.15;2.03;;;28.00;99.90;;;;;;5034548;28;20009;-47
2023/04/30 09:59:46;;;;;;;3.10;2.13;;;28.00;99.90;;;;;;5034018;28;20036;-46
2023/04/30 10:02:15;;;;;;;2.80;2.05;;;28.00;99.90;;;;;;5034544;28;20025;-46
2023/04/30 10:04:47;;;;;;;2.42;2.10;;;28.00;99.90;;;;;;5033911;28;20414;-46
2023/04/30 10:07:19;;;;;;;3.60;2.63;;;28.00;99.90;;;;;;5034208;28;20522;-47
2023/04/30 10:09:50;;;;;;;3.63;2.00;;;28.00;99.90;;;;;;5034003;28;20105;-46
2023/04/30 10:12:23;;;;;;;3.55;2.72;;;28.00;99.90;;;;;;5033808;28;20151;-49
2023/04/30 10:14:57;;;;;;;4.05;2.45;;;28.00;99.90;;;;;;5033832;28;20422;-47
2023/04/30 10:17:26;;;;;;;4.07;2.30;;;28.00;99.90;;;;;;5033202;28;20550;-46
2023/04/30 10:19:57;;;;;;;2.92;2.60;;;28.00;99.90;;;;;;5033705;28;20033;-46
2023/04/30 10:22:24;;;;;;;5.50;2.60;;;28.00;99.90;;;;;;5033834;28;20022;-46
2023/04/30 10:24:50;;;;;;;3.20;2.13;;;28.00;99.90;;;;;;5033891;28;20029;-45
2023/04/30 10:27:17;;;;;;;4.65;2.92;;;28.00;99.90;;;;;;5032488;28;20356;-46
2023/04/30 10:29:45;;;;;;;3.42;2.60;;;28.00;99.90;;;;;;5033734;28;20037;-46
2023/04/30 10:32:12;;;;;;;4.82;3.30;;;28.10;99.90;;;;;;5033851;28;20375;-46
2023/04/30 10:34:53;;;;;;;3.92;2.90;;;28.00;99.90;;;;;;5033245;28;20064;-46
2023/04/30 10:37:35;;;;;;;5.00;3.60;;;28.10;99.90;;;;;;5033605;28;20067;-45
2023/04/30 10:40:03;;;;;;;6.25;3.88;;;28.10;99.90;;;;;;5033457;28;20024;-46
2023/04/30 10:42:29;;;;;;;4.32;3.78;;;28.00;99.90;;;;;;5033701;28;20017;-46
2023/04/30 10:44:55;;;;;;;4.88;4.18;;;28.00;99.90;;;;;;5033480;28;20088;-46
2023/04/30 10:47:27;;;;;;;5.90;3.80;;;28.10;99.90;;;;;;5033432;28;20032;-46
2023/04/30 10:50:07;;;;;;;6.07;4.20;;;28.10;99.90;;;;;;5032880;28;20047;-46
2023/04/30 10:52:32;;;;;;;4.75;3.47;;;28.10;99.90;;;;;;5033536;28;20031;-46
2023/04/30 10:55:03;;;;;;;4.70;3.67;;;28.00;99.90;;;;;;5033349;28;20017;-46
2023/04/30 10:57:29;;;;;;;5.10;3.80;;;28.10;99.90;;;;;;5033209;28;20017;-46
2023/04/30 11:00:07;;;;;;;6.38;4.00;;;28.10;99.90;;;;;;5032700;28;20029;-45
2023/04/30 11:02:44;;;;;;;4.70;3.95;;;28.10;99.90;;;;;;5033065;28;20459;-45
2023/04/30 11:05:11;;;;;;;;;;;28.10;99.90;;;;;;5033205;28;20116;-45
2023/04/30 11:07:47;;;;;;;5.20;3.47;;;28.20;99.90;;;;;;5031720;28;19905;-45
2023/04/30 11:10:13;;;;;;;5.65;4.43;;;28.20;99.90;;;;;;5033162;28;20528;-46
2023/04/30 11:12:46;;;;;;;5.93;4.00;;;28.10;99.90;;;;;;5032769;28;20025;-46
2023/04/30 11:15:15;;;;;;;6.60;3.75;;;28.10;99.90;;;;;;5033143;28;20025;-45
2023/04/30 11:17:44;;;;;;;7.78;3.70;;;28.20;99.90;;;;;;5032868;28;20366;-45
2023/04/30 11:20:13;;;;;;;5.65;3.78;;;28.20;99.90;;;;;;5032270;28;20348;-46
2023/04/30 11:22:39;;;;;;;5.22;3.72;;;28.10;99.90;;;;;;5032891;28;20072;-46
2023/04/30 11:25:11;;;;;;;5.15;3.80;;;28.20;99.90;;;;;;5032506;28;20411;-46
2023/04/30 11:27:41;;;;;;;5.60;3.53;;;28.20;99.90;;;;;;5032257;28;20017;-46
2023/04/30 11:30:14;;;;;;;4.82;3.95;;;28.20;99.90;;;;;;5032542;28;20021;-47
2023/04/30 11:32:46;;;;;;;5.82;3.95;;;28.20;99.90;;;;;;5032589;28;20110;-47
2023/04/30 11:35:12;;;;;;;4.78;3.85;;;28.20;99.90;;;;;;5032580;28;20494;-47
2023/04/30 11:37:42;;;;;;;5.40;4.00;;;28.20;99.90;;;;;;5032713;28;20163;-47
2023/04/30 11:40:10;;;;;;;5.57;3.70;;;28.20;99.90;;;;;;5032421;28;20022;-46
2023/04/30 11:42:38;;;;;;;4.88;3.53;;;28.20;99.90;;;;;;5032484;28;20048;-47
2023/04/30 11:45:11;;;;;;;5.03;3.95;;;28.20;99.90;;;;;;5032149;28;20018;-46
2023/04/30 11:47:44;;;;;;;7.13;3.72;;;28.20;99.90;;;;;;5032475;28;20032;-47
2023/04/30 11:50:13;;;;;;;5.18;3.50;;;28.20;99.90;;;;;;5032165;28;20492;-46
2023/04/30 11:52:40;;;;;;;4.97;3.67;;;28.20;99.90;;;;;;5032335;28;20100;-46
2023/04/30 11:55:16;;;;;;;5.60;3.63;;;28.20;99.90;;;;;;5031057;28;20022;-47
2023/04/30 11:57:47;;;;;;;5.32;3.53;;;28.20;99.90;;;;;;5030924;28;20030;-47
2023/04/30 12:00:17;;;;;;;7.10;3.53;;;28.20;99.90;;;;;;5031901;28;20124;-47
2023/04/30 12:02:45;;;;;;;4.93;3.28;;;28.30;99.90;;;;;;5032248;28;20052;-47
2023/04/30 12:05:16;;;;;;;4.10;3.35;;;28.20;99.90;;;;;;5031767;28;20422;-47
2023/04/30 12:08:10;;;;;;;3.17;2.88;;;28.30;99.90;;;;;;5031677;28;20395;-47
2023/04/30 12:10:36;;;;;;;3.75;3.20;;;28.30;99.90;;;;;;5029218;28;20135;-47
2023/04/30 12:13:02;;;;;;;5.43;3.58;;;28.20;99.90;;;;;;5031701;28;20502;-47
2023/04/30 12:15:28;;;;;;;5.22;3.60;;;28.30;99.90;;;;;;5032181;28;20052;-46
2023/04/30 12:17:56;;;;;;;5.20;3.15;;;28.30;99.90;;;;;;5031251;28;20029;-47
2023/04/30 12:20:23;;;;;;;4.57;3.08;;;28.30;99.90;;;;;;5030549;28;20466;-46
2023/04/30 12:22:50;;;;;;;4.38;3.40;;;28.30;99.90;;;;;;5030553;28;20426;-47
2023/04/30 12:25:20;;;;;;;4.80;3.50;;;28.30;99.90;;;;;;5032017;28;20025;-46
2023/04/30 12:27:51;;;;;;;4.10;3.47;;;28.30;99.90;;;;;;5031774;28;20026;-47
2023/04/30 12:30:22;;;;;;;4.60;3.40;;;28.30;99.90;;;;;;5031644;28;20057;-47
2023/04/30 12:32:51;;;;;;;4.93;3.08;;;28.30;99.90;;;;;;5031584;28;20026;-47
2023/04/30 12:35:19;;;;;;;4.90;3.30;;;28.30;99.90;;;;;;5031628;28;20017;-47
2023/04/30 12:37:53;;;;;;;5.95;3.50;;;28.40;99.90;;;;;;5031912;28;20056;-46
2023/04/30 12:40:20;;;;;;;3.47;2.85;;;28.40;99.90;;;;;;5033235;28;20025;-47
2023/04/30 12:42:46;;;;;;;;;;;28.40;99.90;;;;;;5036144;28;20025;-47
2023/04/30 12:45:12;;;;;;;3.10;2.65;;;28.40;99.90;;;;;;5035902;28;19912;-46
2023/04/30 12:47:40;;;;;;;3.97;3.10;;;28.40;99.90;;;;;;5035832;28;20104;-47
2023/04/30 12:50:13;;;;;;;4.15;3.35;;;28.50;99.90;;;;;;5035779;28;20033;-48
2023/04/30 12:52:40;;;;;;;3.80;2.80;;;28.40;99.90;;;;;;5035773;28;20029;-47